Tafi del Valle, Argentina
Current Conditions -  °F | °C
As of 1:00 PM on Thursday 23 Oct 2014 (Local Time) from SANT Reporting Station
Scattered Clouds Scattered Clouds  
Wind Chill: 91°   Ceiling: Unl
Heat Index: 91°   Visibility: 4mi
Dew Point: 61°   Wind: 5mph
Humidity: 36%   Direction: 90°E
Pressure: 29.91"   Gusts: NA
Location:  26.87°S, 65.68°W
Report Text: SANT 231600Z 09004KT 7000 SCT040CB FEW10033/16 Q1013
Loading
Personal Weather Stations






























Interactive Weather Map
Tropical Storm Tracking
New forecast layout! Learn more

10-Day Weather Forecast

Advertisements
Track Severe Weather on mobile